sensor_id;sensor_type;location;lat;lon;timestamp;pressure;altitude;pressure_sealevel;temperature
76713;BMP280;65640;43.154;25.658;2023-12-07T00:00:15;100558.94;;;4.02
76713;BMP280;65640;43.154;25.658;2023-12-07T00:02:40;100558.00;;;3.96
76713;BMP280;65640;43.154;25.658;2023-12-07T00:05:05;100566.00;;;3.95
76713;BMP280;65640;43.154;25.658;2023-12-07T00:07:31;100571.72;;;3.97
76713;BMP280;65640;43.154;25.658;2023-12-07T00:09:56;100568.72;;;4.00
76713;BMP280;65640;43.154;25.658;2023-12-07T00:12:21;100572.31;;;3.99
76713;BMP280;65640;43.154;25.658;2023-12-07T00:14:46;100575.13;;;3.97
76713;BMP280;65640;43.154;25.658;2023-12-07T00:17:12;100570.16;;;3.96
76713;BMP280;65640;43.154;25.658;2023-12-07T00:19:37;100571.09;;;4.01
76713;BMP280;65640;43.154;25.658;2023-12-07T00:22:02;100568.28;;;4.03
76713;BMP280;65640;43.154;25.658;2023-12-07T00:24:28;100568.28;;;4.03
76713;BMP280;65640;43.154;25.658;2023-12-07T00:26:53;100571.88;;;4.02
76713;BMP280;65640;43.154;25.658;2023-12-07T00:29:19;100575.91;;;3.98
76713;BMP280;65640;43.154;25.658;2023-12-07T00:31:44;100575.47;;;4.01
76713;BMP280;65640;43.154;25.658;2023-12-07T00:34:09;100576.69;;;3.98
76713;BMP280;65640;43.154;25.658;2023-12-07T00:36:35;100566.75;;;3.95
76713;BMP280;65640;43.154;25.658;2023-12-07T00:39:00;100574.78;;;3.94
76713;BMP280;65640;43.154;25.658;2023-12-07T00:41:25;100575.19;;;3.90
76713;BMP280;65640;43.154;25.658;2023-12-07T00:43:50;100573.03;;;3.87
76713;BMP280;65640;43.154;25.658;2023-12-07T00:46:16;100577.00;;;3.90
76713;BMP280;65640;43.154;25.658;2023-12-07T00:48:41;100582.59;;;3.87
76713;BMP280;65640;43.154;25.658;2023-12-07T00:51:06;100581.22;;;3.84
76713;BMP280;65640;43.154;25.658;2023-12-07T00:53:32;100582.25;;;3.83
76713;BMP280;65640;43.154;25.658;2023-12-07T00:55:57;100578.09;;;3.82
76713;BMP280;65640;43.154;25.658;2023-12-07T00:58:22;100579.88;;;3.82
76713;BMP280;65640;43.154;25.658;2023-12-07T01:00:48;100577.09;;;3.83
76713;BMP280;65640;43.154;25.658;2023-12-07T01:03:13;100581.69;;;3.81
76713;BMP280;65640;43.154;25.658;2023-12-07T01:05:38;100574.72;;;3.82
76713;BMP280;65640;43.154;25.658;2023-12-07T01:08:04;100575.50;;;3.82
76713;BMP280;65640;43.154;25.658;2023-12-07T01:10:29;100580.00;;;3.87
76713;BMP280;65640;43.154;25.658;2023-12-07T01:12:54;100575.94;;;3.79
76713;BMP280;65640;43.154;25.658;2023-12-07T01:15:20;100576.56;;;3.75
76713;BMP280;65640;43.154;25.658;2023-12-07T01:17:45;100578.31;;;3.81
76713;BMP280;65640;43.154;25.658;2023-12-07T01:20:10;100576.84;;;3.85
76713;BMP280;65640;43.154;25.658;2023-12-07T01:22:38;100576.84;;;3.85
76713;BMP280;65640;43.154;25.658;2023-12-07T01:25:04;100586.97;;;3.86
76713;BMP280;65640;43.154;25.658;2023-12-07T01:27:30;100585.69;;;3.96
76713;BMP280;65640;43.154;25.658;2023-12-07T01:29:56;100581.53;;;3.95
76713;BMP280;65640;43.154;25.658;2023-12-07T01:32:21;100579.84;;;4.00
76713;BMP280;65640;43.154;25.658;2023-12-07T01:34:47;100575.31;;;3.96
76713;BMP280;65640;43.154;25.658;2023-12-07T01:37:12;100580.75;;;3.94
76713;BMP280;65640;43.154;25.658;2023-12-07T01:39:37;100573.41;;;3.91
76713;BMP280;65640;43.154;25.658;2023-12-07T01:42:03;100580.97;;;3.93
76713;BMP280;65640;43.154;25.658;2023-12-07T01:44:28;100588.00;;;3.85
76713;BMP280;65640;43.154;25.658;2023-12-07T01:46:54;100583.19;;;3.89
76713;BMP280;65640;43.154;25.658;2023-12-07T01:49:19;100582.97;;;3.90
76713;BMP280;65640;43.154;25.658;2023-12-07T01:51:45;100589.56;;;3.86
76713;BMP280;65640;43.154;25.658;2023-12-07T01:54:10;100589.56;;;3.86
76713;BMP280;65640;43.154;25.658;2023-12-07T01:56:36;100587.13;;;3.92
76713;BMP280;65640;43.154;25.658;2023-12-07T01:59:01;100585.94;;;3.94
76713;BMP280;65640;43.154;25.658;2023-12-07T02:01:27;100584.25;;;4.00
76713;BMP280;65640;43.154;25.658;2023-12-07T02:03:52;100588.06;;;3.97
76713;BMP280;65640;43.154;25.658;2023-12-07T02:06:17;100587.47;;;3.95
76713;BMP280;65640;43.154;25.658;2023-12-07T02:08:44;100592.91;;;3.94
76713;BMP280;65640;43.154;25.658;2023-12-07T02:11:09;100584.69;;;3.97
76713;BMP280;65640;43.154;25.658;2023-12-07T02:13:38;100579.50;;;3.97
76713;BMP280;65640;43.154;25.658;2023-12-07T02:16:07;100583.66;;;3.98
76713;BMP280;65640;43.154;25.658;2023-12-07T02:18:42;100582.81;;;4.04
76713;BMP280;65640;43.154;25.658;2023-12-07T02:21:21;100592.38;;;4.03
76713;BMP280;65640;43.154;25.658;2023-12-07T02:23:47;100589.00;;;4.03
76713;BMP280;65640;43.154;25.658;2023-12-07T02:29:16;100587.00;;;4.05
76713;BMP280;65640;43.154;25.658;2023-12-07T02:31:41;100582.81;;;4.04
76713;BMP280;65640;43.154;25.658;2023-12-07T02:34:06;100581.16;;;4.09
76713;BMP280;65640;43.154;25.658;2023-12-07T02:36:32;100575.63;;;4.06
76713;BMP280;65640;43.154;25.658;2023-12-07T02:38:59;100576.97;;;4.08
76713;BMP280;65640;43.154;25.658;2023-12-07T02:41:28;100580.00;;;4.05
76713;BMP280;65640;43.154;25.658;2023-12-07T02:43:55;100576.63;;;4.05
76713;BMP280;65640;43.154;25.658;2023-12-07T02:46:22;100587.84;;;3.99
76713;BMP280;65640;43.154;25.658;2023-12-07T02:48:47;100584.81;;;4.02
76713;BMP280;65640;43.154;25.658;2023-12-07T02:51:13;100588.78;;;4.04
76713;BMP280;65640;43.154;25.658;2023-12-07T02:53:38;100597.13;;;4.06
76713;BMP280;65640;43.154;25.658;2023-12-07T02:56:03;100592.59;;;4.02
76713;BMP280;65640;43.154;25.658;2023-12-07T02:58:29;100592.97;;;4.05
76713;BMP280;65640;43.154;25.658;2023-12-07T03:00:54;100597.34;;;4.05
76713;BMP280;65640;43.154;25.658;2023-12-07T03:03:19;100597.78;;;4.02
76713;BMP280;65640;43.154;25.658;2023-12-07T03:05:44;100598.69;;;4.07
76713;BMP280;65640;43.154;25.658;2023-12-07T03:08:10;100598.47;;;4.09
76713;BMP280;65640;43.154;25.658;2023-12-07T03:10:35;100598.06;;;4.12
76713;BMP280;65640;43.154;25.658;2023-12-07T03:13:00;100596.03;;;4.14
76713;BMP280;65640;43.154;25.658;2023-12-07T03:15:25;100598.47;;;4.09
76713;BMP280;65640;43.154;25.658;2023-12-07T03:17:51;100601.44;;;4.12
76713;BMP280;65640;43.154;25.658;2023-12-07T03:20:16;100602.22;;;4.13
76713;BMP280;65640;43.154;25.658;2023-12-07T03:22:42;100609.63;;;4.09
76713;BMP280;65640;43.154;25.658;2023-12-07T03:25:07;100617.75;;;4.13
76713;BMP280;65640;43.154;25.658;2023-12-07T03:27:32;100610.78;;;4.13
76713;BMP280;65640;43.154;25.658;2023-12-07T03:29:58;100608.63;;;4.10
76713;BMP280;65640;43.154;25.658;2023-12-07T03:32:23;100617.69;;;4.19
76713;BMP280;65640;43.154;25.658;2023-12-07T03:34:48;100612.59;;;4.13
76713;BMP280;65640;43.154;25.658;2023-12-07T03:37:13;100608.53;;;4.17
76713;BMP280;65640;43.154;25.658;2023-12-07T03:39:39;100610.78;;;4.13
76713;BMP280;65640;43.154;25.658;2023-12-07T03:42:04;100616.56;;;4.15
76713;BMP280;65640;43.154;25.658;2023-12-07T03:44:29;100615.97;;;4.13
76713;BMP280;65640;43.154;25.658;2023-12-07T03:46:55;100615.28;;;4.06
76713;BMP280;65640;43.154;25.658;2023-12-07T03:49:21;100616.81;;;4.07
76713;BMP280;65640;43.154;25.658;2023-12-07T03:51:46;100610.09;;;4.06
76713;BMP280;65640;43.154;25.658;2023-12-07T03:54:12;100614.47;;;4.06
76713;BMP280;65640;43.154;25.658;2023-12-07T03:56:37;100613.31;;;4.02
76713;BMP280;65640;43.154;25.658;2023-12-07T03:59:02;100611.88;;;4.06
76713;BMP280;65640;43.154;25.658;2023-12-07T04:01:28;100620.88;;;4.03
76713;BMP280;65640;43.154;25.658;2023-12-07T04:03:55;100613.31;;;4.02
76713;BMP280;65640;43.154;25.658;2023-12-07T04:06:24;100612.31;;;4.03
76713;BMP280;65640;43.154;25.658;2023-12-07T04:08:49;100610.41;;;4.10
76713;BMP280;65640;43.154;25.658;2023-12-07T04:11:15;100619.66;;;4.06
76713;BMP280;65640;43.154;25.658;2023-12-07T04:13:40;100618.88;;;4.05
76713;BMP280;65640;43.154;25.658;2023-12-07T04:16:06;100609.50;;;4.04
76713;BMP280;65640;43.154;25.658;2023-12-07T04:18:31;100616.19;;;4.12
76713;BMP280;65640;43.154;25.658;2023-12-07T04:20:57;100616.13;;;4.00
76713;BMP280;65640;43.154;25.658;2023-12-07T04:23:22;100616.47;;;4.04
76713;BMP280;65640;43.154;25.658;2023-12-07T04:25:47;100617.69;;;4.01
76713;BMP280;65640;43.154;25.658;2023-12-07T04:28:12;100622.88;;;4.01
76713;BMP280;65640;43.154;25.658;2023-12-07T04:30:38;100621.78;;;4.09
76713;BMP280;65640;43.154;25.658;2023-12-07T04:33:03;100622.25;;;4.06
76713;BMP280;65640;43.154;25.658;2023-12-07T04:35:29;100625.25;;;4.03
76713;BMP280;65640;43.154;25.658;2023-12-07T04:37:55;100624.09;;;3.99
76713;BMP280;65640;43.154;25.658;2023-12-07T04:40:20;100633.44;;;4.00
76713;BMP280;65640;43.154;25.658;2023-12-07T04:42:45;100633.31;;;3.95
76713;BMP280;65640;43.154;25.658;2023-12-07T04:45:11;100632.53;;;3.94
76713;BMP280;65640;43.154;25.658;2023-12-07T04:47:36;100635.75;;;3.89
76713;BMP280;65640;43.154;25.658;2023-12-07T04:50:01;100641.09;;;3.95
76713;BMP280;65640;43.154;25.658;2023-12-07T04:52:27;100636.47;;;3.97
76713;BMP280;65640;43.154;25.658;2023-12-07T04:54:52;100638.25;;;3.78
76713;BMP280;65640;43.154;25.658;2023-12-07T04:57:17;100631.78;;;3.87
76713;BMP280;65640;43.154;25.658;2023-12-07T04:59:43;100638.56;;;3.88
76713;BMP280;65640;43.154;25.658;2023-12-07T05:02:13;100640.22;;;3.82
76713;BMP280;65640;43.154;25.658;2023-12-07T05:04:38;100639.13;;;3.90
76713;BMP280;65640;43.154;25.658;2023-12-07T05:07:04;100640.56;;;3.86
76713;BMP280;65640;43.154;25.658;2023-12-07T05:09:29;100647.31;;;3.87
76713;BMP280;65640;43.154;25.658;2023-12-07T05:11:56;100649.72;;;3.88
76713;BMP280;65640;43.154;25.658;2023-12-07T05:14:21;100647.28;;;3.94
76713;BMP280;65640;43.154;25.658;2023-12-07T05:16:46;100644.91;;;3.92
76713;BMP280;65640;43.154;25.658;2023-12-07T05:19:13;100654.47;;;3.92
76713;BMP280;65640;43.154;25.658;2023-12-07T05:21:38;100662.81;;;3.94
76713;BMP280;65640;43.154;25.658;2023-12-07T05:24:03;100664.91;;;4.03
76713;BMP280;65640;43.154;25.658;2023-12-07T05:26:29;100662.88;;;4.05
76713;BMP280;65640;43.154;25.658;2023-12-07T05:28:57;100660.63;;;4.09
76713;BMP280;65640;43.154;25.658;2023-12-07T05:31:24;100664.81;;;4.10
76713;BMP280;65640;43.154;25.658;2023-12-07T05:33:49;100665.81;;;4.09
76713;BMP280;65640;43.154;25.658;2023-12-07T05:36:14;100661.66;;;4.08
76713;BMP280;65640;43.154;25.658;2023-12-07T05:38:39;100666.97;;;4.13
76713;BMP280;65640;43.154;25.658;2023-12-07T05:41:05;100669.41;;;4.08
76713;BMP280;65640;43.154;25.658;2023-12-07T05:43:30;100668.69;;;4.01
76713;BMP280;65640;43.154;25.658;2023-12-07T05:45:56;100669.34;;;3.96
76713;BMP280;65640;43.154;25.658;2023-12-07T05:48:21;100673.16;;;3.94
76713;BMP280;65640;43.154;25.658;2023-12-07T05:50:46;100674.75;;;3.95
76713;BMP280;65640;43.154;25.658;2023-12-07T05:53:11;100680.28;;;3.98
76713;BMP280;65640;43.154;25.658;2023-12-07T05:55:38;100681.06;;;3.99
76713;BMP280;65640;43.154;25.658;2023-12-07T05:58:03;100684.66;;;3.98
76713;BMP280;65640;43.154;25.658;2023-12-07T06:00:29;100685.47;;;3.98
76713;BMP280;65640;43.154;25.658;2023-12-07T06:02:54;100680.94;;;3.94
76713;BMP280;65640;43.154;25.658;2023-12-07T06:05:19;100694.44;;;3.96
76713;BMP280;65640;43.154;25.658;2023-12-07T06:07:46;100691.06;;;3.95
76713;BMP280;65640;43.154;25.658;2023-12-07T06:10:11;100699.63;;;3.96
76713;BMP280;65640;43.154;25.658;2023-12-07T06:12:36;100696.47;;;3.94
76713;BMP280;65640;43.154;25.658;2023-12-07T06:15:02;100691.84;;;3.96
76713;BMP280;65640;43.154;25.658;2023-12-07T06:17:27;100699.41;;;3.97
76713;BMP280;65640;43.154;25.658;2023-12-07T06:19:52;100701.00;;;3.98
76713;BMP280;65640;43.154;25.658;2023-12-07T06:22:18;100701.88;;;3.92
76713;BMP280;65640;43.154;25.658;2023-12-07T06:24:43;100705.25;;;3.93
76713;BMP280;65640;43.154;25.658;2023-12-07T06:27:09;100708.97;;;3.97
76713;BMP280;65640;43.154;25.658;2023-12-07T06:29:35;100713.72;;;4.00
76713;BMP280;65640;43.154;25.658;2023-12-07T06:32:00;100710.34;;;3.99
76713;BMP280;65640;43.154;25.658;2023-12-07T06:34:25;100706.25;;;3.92
76713;BMP280;65640;43.154;25.658;2023-12-07T06:36:51;100710.56;;;3.98
76713;BMP280;65640;43.154;25.658;2023-12-07T06:39:16;100713.31;;;4.03
76713;BMP280;65640;43.154;25.658;2023-12-07T06:41:41;100715.31;;;4.01
76713;BMP280;65640;43.154;25.658;2023-12-07T06:44:07;100714.53;;;4.00
76713;BMP280;65640;43.154;25.658;2023-12-07T06:46:33;100727.69;;;3.99
76713;BMP280;65640;43.154;25.658;2023-12-07T06:48:58;100725.09;;;3.99
76713;BMP280;65640;43.154;25.658;2023-12-07T06:51:24;100721.50;;;4.00
76713;BMP280;65640;43.154;25.658;2023-12-07T06:53:49;100718.31;;;3.98
76713;BMP280;65640;43.154;25.658;2023-12-07T06:56:14;100727.69;;;3.99
76713;BMP280;65640;43.154;25.658;2023-12-07T06:58:40;100728.84;;;4.03
76713;BMP280;65640;43.154;25.658;2023-12-07T07:01:05;100729.22;;;4.06
76713;BMP280;65640;43.154;25.658;2023-12-07T07:03:30;100731.56;;;4.08
76713;BMP280;65640;43.154;25.658;2023-12-07T07:05:56;100724.38;;;4.10
76713;BMP280;65640;43.154;25.658;2023-12-07T07:08:21;100727.97;;;4.09
76713;BMP280;65640;43.154;25.658;2023-12-07T07:10:46;100730.00;;;4.07
76713;BMP280;65640;43.154;25.658;2023-12-07T07:13:12;100729.56;;;4.10
76713;BMP280;65640;43.154;25.658;2023-12-07T07:15:39;100732.03;;;4.05
76713;BMP280;65640;43.154;25.658;2023-12-07T07:18:07;100735.16;;;4.07
76713;BMP280;65640;43.154;25.658;2023-12-07T07:20:32;100738.78;;;4.06
76713;BMP280;65640;43.154;25.658;2023-12-07T07:22:57;100734.41;;;4.06
76713;BMP280;65640;43.154;25.658;2023-12-07T07:25:23;100735.97;;;4.07
76713;BMP280;65640;43.154;25.658;2023-12-07T07:27:48;100738.22;;;4.04
76713;BMP280;65640;43.154;25.658;2023-12-07T07:30:13;100747.06;;;4.14
76713;BMP280;65640;43.154;25.658;2023-12-07T07:32:39;100745.47;;;4.13
76713;BMP280;65640;43.154;25.658;2023-12-07T07:35:04;100742.59;;;4.21
76713;BMP280;65640;43.154;25.658;2023-12-07T07:37:30;100739.81;;;4.23
76713;BMP280;65640;43.154;25.658;2023-12-07T07:39:55;100737.78;;;4.25
76713;BMP280;65640;43.154;25.658;2023-12-07T07:42:20;100740.97;;;4.27
76713;BMP280;65640;43.154;25.658;2023-12-07T07:44:46;100744.13;;;4.29
76713;BMP280;65640;43.154;25.658;2023-12-07T07:47:11;100756.06;;;4.30
76713;BMP280;65640;43.154;25.658;2023-12-07T07:49:36;100753.34;;;4.25
76713;BMP280;65640;43.154;25.658;2023-12-07T07:52:02;100755.50;;;4.28
76713;BMP280;65640;43.154;25.658;2023-12-07T07:54:27;100756.44;;;4.34
76713;BMP280;65640;43.154;25.658;2023-12-07T07:56:53;100756.56;;;4.39
76713;BMP280;65640;43.154;25.658;2023-12-07T07:59:18;100764.13;;;4.40
76713;BMP280;65640;43.154;25.658;2023-12-07T08:01:45;100757.81;;;4.36
76713;BMP280;65640;43.154;25.658;2023-12-07T08:04:12;100764.72;;;4.42
76713;BMP280;65640;43.154;25.658;2023-12-07T08:06:37;100765.34;;;4.38
76713;BMP280;65640;43.154;25.658;2023-12-07T08:09:02;100767.72;;;4.39
76713;BMP280;65640;43.154;25.658;2023-12-07T08:11:28;100768.31;;;4.41
76713;BMP280;65640;43.154;25.658;2023-12-07T08:13:54;100773.66;;;4.46
76713;BMP280;65640;43.154;25.658;2023-12-07T08:16:19;100779.00;;;4.51
76713;BMP280;65640;43.154;25.658;2023-12-07T08:18:44;100780.22;;;4.49
76713;BMP280;65640;43.154;25.658;2023-12-07T08:21:18;100776.16;;;4.53
76713;BMP280;65640;43.154;25.658;2023-12-07T08:23:43;100775.59;;;4.51
76713;BMP280;65640;43.154;25.658;2023-12-07T08:26:09;100775.38;;;4.52
76713;BMP280;65640;43.154;25.658;2023-12-07T08:28:35;100782.06;;;4.60
76713;BMP280;65640;43.154;25.658;2023-12-07T08:31:00;100780.53;;;4.52
76713;BMP280;65640;43.154;25.658;2023-12-07T08:33:25;100784.94;;;4.52
76713;BMP280;65640;43.154;25.658;2023-12-07T08:35:50;100784.84;;;4.58
76713;BMP280;65640;43.154;25.658;2023-12-07T08:38:20;100786.19;;;4.49
76713;BMP280;65640;43.154;25.658;2023-12-07T08:40:46;100789.03;;;4.41
76713;BMP280;65640;43.154;25.658;2023-12-07T08:43:12;100787.88;;;4.37
76713;BMP280;65640;43.154;25.658;2023-12-07T08:45:37;100792.59;;;4.47
76713;BMP280;65640;43.154;25.658;2023-12-07T08:48:03;100793.84;;;4.38
76713;BMP280;65640;43.154;25.658;2023-12-07T08:50:29;100788.66;;;4.38
76713;BMP280;65640;43.154;25.658;2023-12-07T08:52:54;100789.91;;;4.35
76713;BMP280;65640;43.154;25.658;2023-12-07T08:55:20;100786.53;;;4.35
76713;BMP280;65640;43.154;25.658;2023-12-07T08:57:45;100792.63;;;4.40
76713;BMP280;65640;43.154;25.658;2023-12-07T09:00:10;100789.91;;;4.35
76713;BMP280;65640;43.154;25.658;2023-12-07T09:02:38;100782.56;;;4.32
76713;BMP280;65640;43.154;25.658;2023-12-07T09:05:03;100782.69;;;4.37
76713;BMP280;65640;43.154;25.658;2023-12-07T09:07:28;100779.53;;;4.35
76713;BMP280;65640;43.154;25.658;2023-12-07T09:09:54;100776.50;;;4.38
76713;BMP280;65640;43.154;25.658;2023-12-07T09:12:19;100776.38;;;4.33
76713;BMP280;65640;43.154;25.658;2023-12-07T09:14:44;100775.19;;;4.29
76713;BMP280;65640;43.154;25.658;2023-12-07T09:17:09;100773.91;;;4.38
76713;BMP280;65640;43.154;25.658;2023-12-07T09:19:35;100771.28;;;4.45
76713;BMP280;65640;43.154;25.658;2023-12-07T09:22:00;100775.44;;;4.46
76713;BMP280;65640;43.154;25.658;2023-12-07T09:24:25;100769.47;;;4.45
76713;BMP280;65640;43.154;25.658;2023-12-07T09:26:51;100765.00;;;4.52
76713;BMP280;65640;43.154;25.658;2023-12-07T09:29:17;100767.81;;;4.51
76713;BMP280;65640;43.154;25.658;2023-12-07T09:31:42;100770.53;;;4.56
76713;BMP280;65640;43.154;25.658;2023-12-07T09:34:07;100771.69;;;4.60
76713;BMP280;65640;43.154;25.658;2023-12-07T09:36:33;100767.03;;;4.50
76713;BMP280;65640;43.154;25.658;2023-12-07T09:38:59;100767.03;;;4.50
76713;BMP280;65640;43.154;25.658;2023-12-07T09:41:24;100776.94;;;4.53
76713;BMP280;65640;43.154;25.658;2023-12-07T09:43:51;100764.69;;;4.60
76713;BMP280;65640;43.154;25.658;2023-12-07T09:46:16;100775.50;;;4.57
76713;BMP280;65640;43.154;25.658;2023-12-07T09:48:42;100773.25;;;4.61
76713;BMP280;65640;43.154;25.658;2023-12-07T09:51:09;100768.88;;;4.61
76713;BMP280;65640;43.154;25.658;2023-12-07T09:53:34;100766.88;;;4.63
76713;BMP280;65640;43.154;25.658;2023-12-07T09:56:00;100770.31;;;4.57
76713;BMP280;65640;43.154;25.658;2023-12-07T09:58:25;100773.91;;;4.56
76713;BMP280;65640;43.154;25.658;2023-12-07T10:00:51;100776.28;;;4.58
76713;BMP280;65640;43.154;25.658;2023-12-07T10:03:22;100774.44;;;4.65
76713;BMP280;65640;43.154;25.658;2023-12-07T10:06:06;100764.44;;;4.69
76713;BMP280;65640;43.154;25.658;2023-12-07T10:08:32;100768.59;;;4.70
76713;BMP280;65640;43.154;25.658;2023-12-07T10:11:01;100758.59;;;4.73
76713;BMP280;65640;43.154;25.658;2023-12-07T10:13:28;100764.78;;;4.72
76713;BMP280;65640;43.154;25.658;2023-12-07T10:16:04;100756.06;;;4.67
76713;BMP280;65640;43.154;25.658;2023-12-07T10:18:30;100767.06;;;4.62
76713;BMP280;65640;43.154;25.658;2023-12-07T10:20:56;100757.28;;;4.64
76713;BMP280;65640;43.154;25.658;2023-12-07T10:23:21;100759.88;;;4.64
76713;BMP280;65640;43.154;25.658;2023-12-07T10:25:50;100762.69;;;4.62
76713;BMP280;65640;43.154;25.658;2023-12-07T10:28:15;100757.50;;;4.62
76713;BMP280;65640;43.154;25.658;2023-12-07T10:30:42;100757.66;;;4.68
76713;BMP280;65640;43.154;25.658;2023-12-07T10:33:09;100764.78;;;4.72
76713;BMP280;65640;43.154;25.658;2023-12-07T10:35:41;100764.09;;;4.77
76713;BMP280;65640;43.154;25.658;2023-12-07T10:38:06;100765.88;;;4.76
76713;BMP280;65640;43.154;25.658;2023-12-07T10:40:32;100768.59;;;4.70
76713;BMP280;65640;43.154;25.658;2023-12-07T10:42:57;100765.59;;;4.73
76713;BMP280;65640;43.154;25.658;2023-12-07T10:45:25;100756.81;;;4.74
76713;BMP280;65640;43.154;25.658;2023-12-07T10:47:54;100750.91;;;4.78
76713;BMP280;65640;43.154;25.658;2023-12-07T10:50:24;100753.44;;;4.85
76713;BMP280;65640;43.154;25.658;2023-12-07T10:52:52;100745.94;;;4.77
76713;BMP280;65640;43.154;25.658;2023-12-07T10:55:20;100747.53;;;4.78
76713;BMP280;65640;43.154;25.658;2023-12-07T10:57:46;100746.66;;;4.84
76713;BMP280;65640;43.154;25.658;2023-12-07T11:00:12;100745.28;;;4.81
76713;BMP280;65640;43.154;25.658;2023-12-07T11:02:37;100749.25;;;4.84
76713;BMP280;65640;43.154;25.658;2023-12-07T11:05:03;100750.69;;;4.80
76713;BMP280;65640;43.154;25.658;2023-12-07T11:07:32;100745.94;;;4.77
76713;BMP280;65640;43.154;25.658;2023-12-07T11:10:20;100747.16;;;4.74
76713;BMP280;65640;43.154;25.658;2023-12-07T11:12:53;100755.22;;;4.73
76713;BMP280;65640;43.154;25.658;2023-12-07T11:15:19;100742.78;;;4.75
76713;BMP280;65640;43.154;25.658;2023-12-07T11:17:51;100746.72;;;4.77
76713;BMP280;65640;43.154;25.658;2023-12-07T11:20:20;100743.84;;;4.74
76713;BMP280;65640;43.154;25.658;2023-12-07T11:22:45;100745.38;;;4.75
76713;BMP280;65640;43.154;25.658;2023-12-07T11:25:11;100756.81;;;4.74
76713;BMP280;65640;43.154;25.658;2023-12-07T11:27:36;100757.47;;;4.81
76713;BMP280;65640;43.154;25.658;2023-12-07T11:30:02;100755.63;;;4.70
76713;BMP280;65640;43.154;25.658;2023-12-07T11:32:28;100757.34;;;4.57
76713;BMP280;65640;43.154;25.658;2023-12-07T11:34:53;100751.38;;;4.57
76713;BMP280;65640;43.154;25.658;2023-12-07T11:37:19;100757.34;;;4.57
76713;BMP280;65640;43.154;25.658;2023-12-07T11:39:44;100747.97;;;4.56
76713;BMP280;65640;43.154;25.658;2023-12-07T11:42:16;100751.81;;;4.54
76713;BMP280;65640;43.154;25.658;2023-12-07T11:44:43;100743.84;;;4.55
76713;BMP280;65640;43.154;25.658;2023-12-07T11:47:09;100750.56;;;4.56
76713;BMP280;65640;43.154;25.658;2023-12-07T11:49:35;100750.56;;;4.56
76713;BMP280;65640;43.154;25.658;2023-12-07T11:52:00;100743.72;;;4.50
76713;BMP280;65640;43.154;25.658;2023-12-07T11:54:26;100747.88;;;4.51
76713;BMP280;65640;43.154;25.658;2023-12-07T11:56:55;100744.59;;;4.56
76713;BMP280;65640;43.154;25.658;2023-12-07T11:59:21;100746.44;;;4.55
76713;BMP280;65640;43.154;25.658;2023-12-07T12:01:47;100753.16;;;4.56
76713;BMP280;65640;43.154;25.658;2023-12-07T12:04:14;100753.97;;;4.57
76713;BMP280;65640;43.154;25.658;2023-12-07T12:06:39;100750.53;;;4.45
76713;BMP280;65640;43.154;25.658;2023-12-07T12:09:04;100748.75;;;4.45
76713;BMP280;65640;43.154;25.658;2023-12-07T12:11:30;100746.00;;;4.40
76713;BMP280;65640;43.154;25.658;2023-12-07T12:13:55;100748.44;;;4.35
76713;BMP280;65640;43.154;25.658;2023-12-07T12:16:20;100752.75;;;4.41
76713;BMP280;65640;43.154;25.658;2023-12-07T12:18:46;100746.56;;;4.42
76713;BMP280;65640;43.154;25.658;2023-12-07T12:21:11;100756.00;;;4.37
76713;BMP280;65640;43.154;25.658;2023-12-07T12:23:36;100757.16;;;4.41
76713;BMP280;65640;43.154;25.658;2023-12-07T12:26:04;100749.78;;;4.38
76713;BMP280;65640;43.154;25.658;2023-12-07T12:28:30;100747.28;;;4.31
76713;BMP280;65640;43.154;25.658;2023-12-07T12:30:57;100748.75;;;4.27
76713;BMP280;65640;43.154;25.658;2023-12-07T12:33:22;100747.94;;;4.26
76713;BMP280;65640;43.154;25.658;2023-12-07T12:36:00;100748.94;;;4.25
76713;BMP280;65640;43.154;25.658;2023-12-07T12:38:25;100759.53;;;4.24
76713;BMP280;65640;43.154;25.658;2023-12-07T12:40:50;100761.75;;;4.20
76713;BMP280;65640;43.154;25.658;2023-12-07T12:43:16;100758.56;;;4.18
76713;BMP280;65640;43.154;25.658;2023-12-07T12:45:41;100758.56;;;4.18
76713;BMP280;65640;43.154;25.658;2023-12-07T12:48:06;100762.97;;;4.18
76713;BMP280;65640;43.154;25.658;2023-12-07T12:50:33;100756.19;;;4.17
76713;BMP280;65640;43.154;25.658;2023-12-07T12:52:59;100760.94;;;4.20
76713;BMP280;65640;43.154;25.658;2023-12-07T12:55:28;100760.38;;;4.18
76713;BMP280;65640;43.154;25.658;2023-12-07T12:57:54;100761.22;;;4.12
76713;BMP280;65640;43.154;25.658;2023-12-07T13:00:20;100766.25;;;4.07
76713;BMP280;65640;43.154;25.658;2023-12-07T13:02:46;100768.22;;;4.11
76713;BMP280;65640;43.154;25.658;2023-12-07T13:05:12;100772.72;;;4.16
76713;BMP280;65640;43.154;25.658;2023-12-07T13:07:37;100767.63;;;4.09
76713;BMP280;65640;43.154;25.658;2023-12-07T13:10:02;100773.31;;;4.18
76713;BMP280;65640;43.154;25.658;2023-12-07T13:12:28;100777.06;;;4.22
76713;BMP280;65640;43.154;25.658;2023-12-07T13:14:55;100779.47;;;4.23
76713;BMP280;65640;43.154;25.658;2023-12-07T13:17:20;100777.66;;;4.24
76713;BMP280;65640;43.154;25.658;2023-12-07T13:19:45;100782.22;;;4.29
76713;BMP280;65640;43.154;25.658;2023-12-07T13:22:11;100774.19;;;4.12
76713;BMP280;65640;43.154;25.658;2023-12-07T13:24:36;100777.38;;;4.14
76713;BMP280;65640;43.154;25.658;2023-12-07T13:27:01;100780.50;;;4.16
76713;BMP280;65640;43.154;25.658;2023-12-07T13:29:27;100783.75;;;4.11
76713;BMP280;65640;43.154;25.658;2023-12-07T13:31:52;100788.34;;;4.09
76713;BMP280;65640;43.154;25.658;2023-12-07T13:34:17;100782.59;;;4.07
76713;BMP280;65640;43.154;25.658;2023-12-07T13:36:42;100789.81;;;4.05
76713;BMP280;65640;43.154;25.658;2023-12-07T13:39:08;100796.03;;;4.16
76713;BMP280;65640;43.154;25.658;2023-12-07T13:41:34;100793.69;;;4.14
76713;BMP280;65640;43.154;25.658;2023-12-07T13:43:59;100794.25;;;4.16
76713;BMP280;65640;43.154;25.658;2023-12-07T13:46:26;100805.00;;;4.20
76713;BMP280;65640;43.154;25.658;2023-12-07T13:48:51;100796.00;;;4.22
76713;BMP280;65640;43.154;25.658;2023-12-07T13:51:17;100804.38;;;4.24